createdAt,value
2019-02-14T00:00:40.811Z,33.35
2019-02-14T00:03:09.265Z,32.88
2019-02-14T00:05:37.674Z,33.10
2019-02-14T00:08:06.068Z,33.83
2019-02-14T00:10:34.536Z,32.93
2019-02-14T00:13:02.996Z,33.83
2019-02-14T00:15:31.396Z,33.13
2019-02-14T00:17:59.802Z,32.40
2019-02-14T00:20:28.231Z,31.60
2019-02-14T00:22:56.701Z,32.17
2019-02-14T00:25:25.100Z,33.25
2019-02-14T00:27:53.509Z,32.75
2019-02-14T00:30:21.903Z,31.02
2019-02-14T00:32:50.316Z,31.68
2019-02-14T00:35:24.939Z,32.77
2019-02-14T00:37:48.891Z,33.45
2019-02-14T00:40:17.308Z,33.15
2019-02-14T00:42:46.020Z,33.50
2019-02-14T00:45:14.419Z,33.38
2019-02-14T00:47:42.836Z,33.65
2019-02-14T00:50:11.227Z,32.38
2019-02-14T00:52:39.643Z,33.88
2019-02-14T00:55:08.045Z,32.80
2019-02-14T00:57:36.466Z,34.48
2019-02-14T01:00:06.902Z,34.67
2019-02-14T01:02:35.327Z,34.80
2019-02-14T01:05:05.984Z,36.33
2019-02-14T01:07:34.387Z,33.83
2019-02-14T01:10:02.804Z,35.25
2019-02-14T01:12:31.212Z,36.33
2019-02-14T01:14:59.624Z,36.13
2019-02-14T01:17:28.052Z,37.00
2019-02-14T01:19:56.472Z,38.55
2019-02-14T01:22:24.868Z,38.08
2019-02-14T01:24:53.292Z,36.65
2019-02-14T01:27:21.687Z,37.83
2019-02-14T01:29:50.142Z,37.53
2019-02-14T01:32:18.616Z,36.53
2019-02-14T01:34:47.023Z,39.50
2019-02-14T01:37:15.441Z,39.60
2019-02-14T01:39:43.848Z,42.07
2019-02-14T01:42:12.246Z,38.85
2019-02-14T01:44:40.676Z,39.35
2019-02-14T01:47:09.072Z,38.45
2019-02-14T01:49:37.494Z,43.08
2019-02-14T01:52:05.902Z,39.50
2019-02-14T01:54:34.319Z,39.85
2019-02-14T01:57:02.754Z,39.10
2019-02-14T01:59:31.166Z,39.80
2019-02-14T02:01:59.842Z,38.80
2019-02-14T02:04:28.248Z,40.40
2019-02-14T02:06:56.708Z,41.02
2019-02-14T02:09:25.143Z,39.75
2019-02-14T02:11:53.547Z,41.00
2019-02-14T02:14:21.964Z,40.05
2019-02-14T02:16:50.367Z,41.50
2019-02-14T02:19:18.788Z,40.98
2019-02-14T02:21:47.191Z,40.98
2019-02-14T02:24:15.600Z,40.83
2019-02-14T02:26:43.999Z,39.00
2019-02-14T02:29:12.408Z,40.00
2019-02-14T02:31:40.807Z,40.90
2019-02-14T02:34:09.215Z,42.58
2019-02-14T02:36:37.624Z,41.35
2019-02-14T02:39:07.578Z,41.45
2019-02-14T02:41:35.981Z,40.17
2019-02-14T02:44:04.455Z,41.13
2019-02-14T02:46:32.852Z,42.93
2019-02-14T02:49:01.264Z,42.55
2019-02-14T02:51:29.672Z,41.63
2019-02-14T02:53:58.081Z,44.18
2019-02-14T02:56:26.483Z,43.40
2019-02-14T02:58:54.892Z,41.10
2019-02-14T03:01:23.288Z,42.13
2019-02-14T03:03:51.697Z,43.85
2019-02-14T03:06:20.177Z,41.88
2019-02-14T03:08:48.648Z,42.60
2019-02-14T03:11:17.077Z,43.78
2019-02-14T03:13:45.562Z,43.20
2019-02-14T03:16:13.985Z,41.65
2019-02-14T03:18:42.454Z,42.10
2019-02-14T03:21:10.860Z,43.35
2019-02-14T03:23:39.265Z,43.40
2019-02-14T03:26:07.675Z,43.10
2019-02-14T03:28:36.072Z,43.30
2019-02-14T03:31:04.488Z,45.12
2019-02-14T03:33:32.871Z,44.58
2019-02-14T03:36:01.283Z,42.85
2019-02-14T03:38:29.694Z,42.55
2019-02-14T03:40:58.107Z,42.98
2019-02-14T03:43:26.519Z,44.45
2019-02-14T03:45:54.932Z,45.50
2019-02-14T03:48:23.328Z,44.65
2019-02-14T03:50:51.764Z,44.15
2019-02-14T03:53:20.160Z,42.30
2019-02-14T03:55:48.595Z,44.50
2019-02-14T03:58:16.994Z,43.42
2019-02-14T04:00:45.392Z,42.85
2019-02-14T04:03:13.787Z,44.48
2019-02-14T04:05:42.252Z,44.23
2019-02-14T04:08:10.668Z,45.30
2019-02-14T04:10:39.095Z,45.88
2019-02-14T04:13:07.488Z,46.85
2019-02-14T04:15:35.960Z,44.98
2019-02-14T04:18:04.376Z,45.40
2019-02-14T04:20:32.780Z,44.40
2019-02-14T04:23:01.180Z,44.85
2019-02-14T04:25:29.591Z,44.13
2019-02-14T04:27:57.988Z,46.13
2019-02-14T04:30:26.437Z,44.33
2019-02-14T04:32:54.836Z,45.70
2019-02-14T04:35:23.263Z,44.98
2019-02-14T04:37:51.736Z,47.38
2019-02-14T04:40:20.136Z,46.05
2019-02-14T04:42:48.541Z,46.97
2019-02-14T04:45:16.960Z,47.00
2019-02-14T04:47:45.368Z,45.38
2019-02-14T04:50:13.776Z,46.80
2019-02-14T04:52:42.213Z,48.05
2019-02-14T04:55:11.343Z,46.68
2019-02-14T04:57:39.779Z,46.33
2019-02-14T05:00:15.198Z,44.97
2019-02-14T05:02:43.633Z,46.75
2019-02-14T05:05:12.110Z,45.12
2019-02-14T05:07:40.515Z,45.83
2019-02-14T05:10:10.687Z,46.37
2019-02-14T05:12:39.092Z,47.25
2019-02-14T05:15:10.596Z,47.38
2019-02-14T05:17:39.008Z,47.07
2019-02-14T05:20:11.663Z,47.03
2019-02-14T05:22:40.077Z,44.50
2019-02-14T05:25:09.211Z,46.65
2019-02-14T05:27:37.624Z,46.02
2019-02-14T05:30:14.169Z,46.48
2019-02-14T05:32:42.588Z,46.13
2019-02-14T05:35:11.012Z,49.05
2019-02-14T05:37:39.431Z,47.73
2019-02-14T05:40:11.908Z,46.02
2019-02-14T05:42:40.325Z,47.67
2019-02-14T05:45:12.731Z,47.00
2019-02-14T05:47:41.141Z,48.48
2019-02-14T05:50:11.788Z,46.65
2019-02-14T05:52:40.192Z,46.37
2019-02-14T05:55:10.643Z,46.92
2019-02-14T05:57:39.061Z,47.35
2019-02-14T06:00:10.630Z,49.63
2019-02-14T06:02:39.055Z,47.53
2019-02-14T06:05:07.480Z,46.00
2019-02-14T06:07:35.887Z,45.30
2019-02-14T06:10:06.727Z,47.15
2019-02-14T06:12:35.245Z,47.50
2019-02-14T06:15:05.297Z,46.60
2019-02-14T06:17:33.724Z,49.15
2019-02-14T06:20:02.132Z,47.27
2019-02-14T06:22:30.546Z,47.05
2019-02-14T06:24:58.967Z,46.15
2019-02-14T06:27:27.364Z,47.50
2019-02-14T06:29:55.792Z,47.48
2019-02-14T06:32:24.193Z,47.17
2019-02-14T06:34:52.606Z,51.28
2019-02-14T06:37:25.831Z,46.68
2019-02-14T06:39:54.242Z,47.62
2019-02-14T06:42:22.660Z,48.10
2019-02-14T06:44:51.071Z,46.67
2019-02-14T06:47:19.483Z,47.73
2019-02-14T06:49:47.888Z,47.60
2019-02-14T06:52:16.302Z,47.13
2019-02-14T06:54:44.729Z,47.95
2019-02-14T06:57:13.156Z,46.73
2019-02-14T06:59:43.581Z,47.98
2019-02-14T07:02:12.011Z,48.00
2019-02-14T07:04:40.426Z,49.37
2019-02-14T07:07:08.849Z,48.95
2019-02-14T07:09:37.255Z,47.13
2019-02-14T07:12:05.647Z,46.58
2019-02-14T07:14:34.140Z,45.70
2019-02-14T07:17:02.556Z,46.37
2019-02-14T07:19:30.984Z,46.50
2019-02-14T07:21:59.380Z,45.97
2019-02-14T07:24:27.800Z,46.73
2019-02-14T07:26:56.236Z,47.08
2019-02-14T07:29:24.636Z,46.85
2019-02-14T07:31:53.056Z,46.92
2019-02-14T07:34:21.484Z,47.55
2019-02-14T07:36:49.884Z,44.77
2019-02-14T07:39:18.633Z,46.80
2019-02-14T07:41:47.056Z,45.67
2019-02-14T07:44:15.464Z,45.07
2019-02-14T07:46:43.860Z,47.15
2019-02-14T07:49:12.284Z,47.05
2019-02-14T07:51:40.686Z,45.90
2019-02-14T07:54:09.116Z,46.37
2019-02-14T07:56:37.516Z,46.18
2019-02-14T07:59:05.921Z,46.63
2019-02-14T08:01:34.656Z,45.30
2019-02-14T08:04:03.068Z,47.75
2019-02-14T08:06:31.486Z,45.57
2019-02-14T08:08:59.896Z,46.25
2019-02-14T08:11:28.296Z,44.18
2019-02-14T08:13:56.687Z,50.52
2019-02-14T08:16:25.454Z,46.90
2019-02-14T08:18:53.854Z,48.13
2019-02-14T08:21:22.260Z,45.20
2019-02-14T08:23:50.675Z,45.85
2019-02-14T08:26:19.077Z,45.25
2019-02-14T08:28:47.507Z,45.38
2019-02-14T08:31:15.937Z,44.73
2019-02-14T08:33:44.352Z,45.20
2019-02-14T08:36:12.765Z,44.88
2019-02-14T08:38:41.183Z,44.60
2019-02-14T08:41:09.605Z,44.60
2019-02-14T08:43:38.035Z,44.75
2019-02-14T08:46:06.440Z,44.93
2019-02-14T08:48:34.846Z,45.38
2019-02-14T08:51:03.283Z,43.20
2019-02-14T08:53:31.677Z,43.52
2019-02-14T08:56:00.083Z,44.67
2019-02-14T08:58:28.496Z,44.30
2019-02-14T09:00:56.920Z,43.28
2019-02-14T09:03:25.319Z,43.23
2019-02-14T09:05:53.727Z,45.00
2019-02-14T09:08:22.126Z,44.05
2019-02-14T09:10:50.874Z,44.23
2019-02-14T09:13:19.269Z,43.90
2019-02-14T09:15:47.683Z,45.15
2019-02-14T09:18:16.088Z,43.38
2019-02-14T09:20:44.510Z,44.55
2019-02-14T09:23:14.681Z,42.88
2019-02-14T09:25:43.082Z,42.62
2019-02-14T09:28:11.499Z,44.03
2019-02-14T09:30:40.259Z,43.75
2019-02-14T09:33:08.664Z,44.00
2019-02-14T09:35:37.157Z,42.50
2019-02-14T09:38:05.573Z,43.90
2019-02-14T09:40:33.990Z,44.67
2019-02-14T09:43:02.401Z,45.08
2019-02-14T09:45:30.829Z,44.75
2019-02-14T09:47:59.232Z,44.40
2019-02-14T09:50:27.647Z,46.02
2019-02-14T09:52:56.064Z,44.05
2019-02-14T09:55:24.705Z,45.75
2019-02-14T09:57:53.118Z,45.23
2019-02-14T10:00:21.581Z,46.58
2019-02-14T10:02:49.975Z,43.50
2019-02-14T10:05:18.572Z,44.00
2019-02-14T10:07:47.045Z,43.30
2019-02-14T10:10:21.278Z,42.93
2019-02-14T10:12:49.690Z,44.27
2019-02-14T10:15:18.091Z,42.65
2019-02-14T10:17:46.541Z,43.95
2019-02-14T10:20:18.213Z,43.08
2019-02-14T10:22:46.646Z,41.25
2019-02-14T10:25:15.313Z,43.20
2019-02-14T10:27:43.742Z,44.27
2019-02-14T10:30:19.681Z,42.17
2019-02-14T10:32:48.097Z,41.75
2019-02-14T10:35:16.498Z,43.33
2019-02-14T10:37:45.245Z,44.10
2019-02-14T10:40:15.779Z,42.95
2019-02-14T10:42:44.192Z,42.67
2019-02-14T10:45:20.124Z,42.62
2019-02-14T10:47:48.538Z,43.02
2019-02-14T10:50:17.015Z,41.95
2019-02-14T10:52:45.540Z,41.90
2019-02-14T10:55:15.126Z,40.40
2019-02-14T10:57:43.809Z,42.07
2019-02-14T11:00:23.444Z,41.83
2019-02-14T11:02:52.215Z,42.60
2019-02-14T11:05:21.154Z,41.28
2019-02-14T11:07:49.566Z,39.23
2019-02-14T11:10:18.376Z,40.90
2019-02-14T11:12:46.848Z,38.90
2019-02-14T11:15:23.743Z,40.85
2019-02-14T11:17:52.220Z,39.53
2019-02-14T11:20:20.645Z,37.73
2019-02-14T11:22:49.511Z,40.67
2019-02-14T11:25:33.409Z,39.50
2019-02-14T11:28:01.824Z,41.95
2019-02-14T11:30:30.235Z,38.90
2019-02-14T11:32:58.658Z,37.03
2019-02-14T11:35:27.068Z,35.78
2019-02-14T11:37:55.481Z,36.28
2019-02-14T11:40:23.927Z,35.63
2019-02-14T11:42:52.370Z,34.25
2019-02-14T11:45:22.196Z,32.70
2019-02-14T11:47:50.694Z,33.15
2019-02-14T11:50:19.146Z,32.53
2019-02-14T11:52:47.568Z,33.18
2019-02-14T11:55:16.053Z,32.33
2019-02-14T11:57:44.496Z,31.70
2019-02-14T12:00:22.027Z,31.20
2019-02-14T12:02:55.743Z,29.82
2019-02-14T12:05:20.564Z,29.75
2019-02-14T12:07:49.021Z,29.00
2019-02-14T12:10:17.424Z,29.40
2019-02-14T12:12:45.827Z,28.83
2019-02-14T12:15:14.629Z,27.30
2019-02-14T12:17:43.021Z,27.82
2019-02-14T12:20:12.882Z,29.48
2019-02-14T12:22:46.689Z,28.02
2019-02-14T12:25:20.367Z,26.70
2019-02-14T12:27:48.773Z,25.72
2019-02-14T12:30:17.243Z,27.67
2019-02-14T12:32:45.658Z,25.30
2019-02-14T12:35:14.143Z,24.82
2019-02-14T12:37:42.556Z,22.52
2019-02-14T12:40:12.608Z,22.15
2019-02-14T12:42:41.015Z,22.83
2019-02-14T12:45:21.494Z,22.58
2019-02-14T12:47:45.134Z,22.93
2019-02-14T12:50:13.801Z,21.85
2019-02-14T12:52:42.557Z,21.25
2019-02-14T12:55:11.225Z,21.33
2019-02-14T12:57:39.624Z,21.40
2019-02-14T13:00:11.141Z,19.90
2019-02-14T13:02:39.573Z,23.00
2019-02-14T13:05:08.846Z,22.13
2019-02-14T13:07:37.542Z,19.48
2019-02-14T13:10:11.316Z,19.73
2019-02-14T13:12:39.741Z,19.15
2019-02-14T13:15:20.480Z,19.57
2019-02-14T13:17:48.888Z,19.10
2019-02-14T13:20:17.304Z,18.42
2019-02-14T13:22:45.718Z,19.55
2019-02-14T13:25:14.902Z,17.52
2019-02-14T13:27:43.325Z,17.70
2019-02-14T13:30:15.272Z,16.55
2019-02-14T13:32:43.670Z,14.50
2019-02-14T13:35:12.094Z,13.80
2019-02-14T13:37:48.418Z,15.53
2019-02-14T13:40:16.893Z,14.87
2019-02-14T13:42:45.319Z,14.63
2019-02-14T13:45:19.576Z,14.73
2019-02-14T13:47:47.997Z,15.60
2019-02-14T13:50:16.723Z,14.13
2019-02-14T13:52:45.123Z,14.05
2019-02-14T13:55:13.815Z,14.10
2019-02-14T13:57:42.233Z,14.65
2019-02-14T14:00:16.392Z,14.95
2019-02-14T14:02:44.805Z,15.38
2019-02-14T14:05:13.286Z,14.98
2019-02-14T14:07:41.779Z,14.80
2019-02-14T14:10:10.527Z,15.73
2019-02-14T14:12:38.955Z,16.00
2019-02-14T14:15:09.717Z,15.50
2019-02-14T14:17:39.049Z,16.57
2019-02-14T14:20:08.892Z,16.73
2019-02-14T14:22:37.734Z,15.78
2019-02-14T14:25:08.329Z,16.48
2019-02-14T14:27:36.742Z,17.80
2019-02-14T14:30:10.591Z,16.35
2019-02-14T14:32:39.020Z,16.90
2019-02-14T14:35:10.839Z,16.17
2019-02-14T14:37:39.590Z,15.98
2019-02-14T14:40:10.835Z,16.20
2019-02-14T14:42:52.916Z,16.70
2019-02-14T14:45:23.003Z,15.65
2019-02-14T14:47:51.475Z,15.40
2019-02-14T14:50:19.932Z,16.30
2019-02-14T14:52:48.356Z,15.30
2019-02-14T14:55:16.827Z,15.03
2019-02-14T14:57:45.251Z,15.20
2019-02-14T15:00:13.789Z,14.63
2019-02-14T15:02:42.352Z,14.78
2019-02-14T15:05:10.761Z,15.40
2019-02-14T15:07:39.207Z,15.50
2019-02-14T15:10:07.984Z,15.75
2019-02-14T15:12:36.829Z,14.20
2019-02-14T15:15:06.888Z,14.00
2019-02-14T15:17:35.328Z,13.90
2019-02-14T15:20:05.997Z,14.15
2019-02-14T15:22:34.427Z,14.25
2019-02-14T15:25:02.875Z,14.83
2019-02-14T15:27:31.305Z,16.00
2019-02-14T15:29:59.725Z,15.43
2019-02-14T15:32:28.120Z,14.90
2019-02-14T15:34:56.560Z,15.25
2019-02-14T15:37:24.968Z,16.32
2019-02-14T15:39:53.397Z,15.30
2019-02-14T15:42:21.807Z,14.93
2019-02-14T15:44:50.537Z,15.80
2019-02-14T15:47:18.962Z,16.30
2019-02-14T15:49:49.359Z,15.15
2019-02-14T15:52:17.957Z,16.90
2019-02-14T15:54:46.663Z,15.10
2019-02-14T15:57:16.468Z,15.75
2019-02-14T15:59:45.663Z,16.42
2019-02-14T16:02:14.999Z,15.23
2019-02-14T16:04:43.417Z,16.00
2019-02-14T16:07:13.304Z,16.42
2019-02-14T16:09:42.351Z,16.32
2019-02-14T16:12:10.789Z,16.75
2019-02-14T16:14:40.662Z,16.85
2019-02-14T16:17:13.128Z,15.90
2019-02-14T16:19:39.511Z,17.62
2019-02-14T16:22:07.919Z,16.90
2019-02-14T16:24:36.333Z,16.60
2019-02-14T16:27:04.750Z,17.75
2019-02-14T16:29:33.196Z,19.50
2019-02-14T16:32:01.615Z,16.83
2019-02-14T16:34:30.027Z,17.98
2019-02-14T16:36:58.440Z,16.30
2019-02-14T16:39:28.635Z,16.00
2019-02-14T16:41:56.996Z,17.15
2019-02-14T16:44:25.411Z,16.85
2019-02-14T16:46:53.846Z,16.70
2019-02-14T16:49:22.275Z,18.02
2019-02-14T16:51:50.694Z,17.32
2019-02-14T16:54:19.112Z,17.92
2019-02-14T16:56:47.529Z,18.37
2019-02-14T16:59:17.627Z,16.73
2019-02-14T17:01:46.601Z,17.32
2019-02-14T17:04:15.861Z,17.93
2019-02-14T17:06:44.269Z,17.12
2019-02-14T17:09:13.018Z,17.48
2019-02-14T17:11:41.440Z,19.17
2019-02-14T17:14:09.856Z,17.62
2019-02-14T17:16:38.267Z,18.32
2019-02-14T17:19:06.686Z,17.50
2019-02-14T17:21:35.100Z,17.00
2019-02-14T17:24:03.543Z,17.82
2019-02-14T17:26:31.942Z,18.57
2019-02-14T17:29:00.373Z,18.13
2019-02-14T17:31:28.812Z,18.30
2019-02-14T17:33:57.232Z,19.55
2019-02-14T17:36:26.081Z,19.57
2019-02-14T17:38:54.495Z,18.62
2019-02-14T17:41:22.920Z,19.50
2019-02-14T17:43:51.346Z,30.32
2019-02-14T17:46:19.745Z,20.70
2019-02-14T17:48:48.164Z,19.48
2019-02-14T17:51:16.585Z,19.82
2019-02-14T17:53:45.916Z,19.65
2019-02-14T17:56:14.654Z,20.10
2019-02-14T17:58:43.083Z,20.12
2019-02-14T18:01:11.511Z,19.82
2019-02-14T18:03:39.919Z,20.02
2019-02-14T18:06:08.690Z,20.20
2019-02-14T18:08:37.241Z,21.00
2019-02-14T18:11:05.669Z,20.70
2019-02-14T18:13:34.075Z,20.82
2019-02-14T18:16:02.494Z,22.17
2019-02-14T18:18:30.891Z,20.75
2019-02-14T18:20:59.665Z,22.70
2019-02-14T18:23:28.065Z,21.62
2019-02-14T18:25:56.556Z,22.42
2019-02-14T18:28:25.002Z,21.70
2019-02-14T18:30:53.400Z,21.00
2019-02-14T18:33:21.821Z,20.50
2019-02-14T18:35:50.235Z,20.97
2019-02-14T18:38:18.708Z,21.42
2019-02-14T18:40:47.120Z,21.35
2019-02-14T18:43:16.516Z,19.92
2019-02-14T18:45:44.940Z,21.07
2019-02-14T18:48:13.367Z,20.68
2019-02-14T18:50:42.026Z,21.00
2019-02-14T18:53:10.432Z,23.02
2019-02-14T18:55:38.859Z,20.10
2019-02-14T18:58:07.283Z,25.10
2019-02-14T19:00:35.698Z,21.33
2019-02-14T19:03:04.119Z,20.37
2019-02-14T19:05:32.534Z,21.40
2019-02-14T19:08:01.016Z,22.10
2019-02-14T19:10:29.428Z,21.50
2019-02-14T19:12:57.864Z,20.57
2019-02-14T19:15:26.361Z,21.10
2019-02-14T19:17:54.783Z,20.92
2019-02-14T19:20:23.184Z,21.87
2019-02-14T19:22:51.606Z,21.25
2019-02-14T19:25:20.041Z,19.73
2019-02-14T19:27:48.452Z,22.52
2019-02-14T19:30:16.843Z,21.37
2019-02-14T19:32:45.239Z,22.07
2019-02-14T19:35:22.482Z,20.57
2019-02-14T19:37:43.773Z,24.00
2019-02-14T19:40:12.192Z,22.63
2019-02-14T19:42:40.615Z,21.50
2019-02-14T19:45:10.380Z,19.90
2019-02-14T19:47:38.790Z,21.35
2019-02-14T19:50:09.574Z,18.80
2019-02-14T19:52:38.030Z,19.65
2019-02-14T19:55:10.555Z,20.37
2019-02-14T19:57:38.959Z,20.27
2019-02-14T20:00:13.340Z,21.75
2019-02-14T20:02:41.806Z,20.95
2019-02-14T20:05:10.765Z,21.30
2019-02-14T20:07:39.163Z,22.00
2019-02-14T20:10:10.309Z,20.88
2019-02-14T20:12:38.785Z,20.67
2019-02-14T20:15:12.533Z,23.43
2019-02-14T20:17:40.973Z,22.15
2019-02-14T20:20:10.087Z,22.10
2019-02-14T20:22:38.864Z,20.50
2019-02-14T20:25:16.864Z,20.43
2019-02-14T20:27:45.270Z,18.95
2019-02-14T20:30:13.712Z,20.02
2019-02-14T20:32:42.120Z,20.63
2019-02-14T20:35:10.538Z,20.25
2019-02-14T20:37:38.979Z,21.27
2019-02-14T20:40:09.659Z,21.42
2019-02-14T20:42:38.080Z,21.05
2019-02-14T20:45:09.594Z,22.58
2019-02-14T20:47:38.004Z,21.12
2019-02-14T20:50:09.861Z,21.50
2019-02-14T20:52:38.636Z,21.37
2019-02-14T20:55:10.223Z,20.85
2019-02-14T20:57:38.668Z,21.33
2019-02-14T21:00:11.748Z,21.70
2019-02-14T21:02:40.175Z,20.10
2019-02-14T21:05:08.853Z,20.17
2019-02-14T21:07:37.298Z,19.70
2019-02-14T21:10:07.211Z,19.57
2019-02-14T21:12:35.638Z,19.00
2019-02-14T21:15:04.500Z,18.23
2019-02-14T21:17:32.909Z,18.67
2019-02-14T21:20:01.340Z,18.70
2019-02-14T21:22:29.741Z,18.00
2019-02-14T21:24:58.161Z,17.60
2019-02-14T21:27:26.581Z,17.85
2019-02-14T21:29:54.988Z,17.30
2019-02-14T21:32:23.487Z,17.20
2019-02-14T21:34:51.917Z,17.77
2019-02-14T21:37:20.318Z,17.20
2019-02-14T21:39:48.716Z,19.00
2019-02-14T21:42:20.842Z,18.02
2019-02-14T21:44:47.336Z,18.62
2019-02-14T21:47:15.826Z,19.30
2019-02-14T21:49:44.249Z,18.02
2019-02-14T21:52:12.688Z,17.73
2019-02-14T21:54:41.083Z,20.37
2019-02-14T21:57:09.511Z,18.98
2019-02-14T21:59:37.948Z,20.68
2019-02-14T22:02:07.091Z,20.70
2019-02-14T22:04:35.603Z,20.88
2019-02-14T22:07:04.444Z,21.62
2019-02-14T22:09:32.903Z,20.12
2019-02-14T22:12:01.332Z,22.73
2019-02-14T22:14:29.738Z,20.82
2019-02-14T22:16:58.165Z,21.33
2019-02-14T22:19:26.569Z,21.73
2019-02-14T22:21:55.003Z,19.77
2019-02-14T22:24:23.447Z,20.40
2019-02-14T22:26:51.855Z,19.98
2019-02-14T22:29:20.273Z,20.20
2019-02-14T22:31:49.503Z,19.75
2019-02-14T22:34:18.212Z,19.92
2019-02-14T22:36:46.704Z,21.20
2019-02-14T22:39:15.120Z,22.50
2019-02-14T22:41:43.528Z,19.27
2019-02-14T22:44:11.940Z,19.48
2019-02-14T22:46:40.423Z,17.77
2019-02-14T22:49:08.859Z,19.70
2019-02-14T22:51:37.258Z,18.70
2019-02-14T22:54:05.667Z,21.07
2019-02-14T22:56:34.069Z,21.90
2019-02-14T22:59:02.484Z,18.70
2019-02-14T23:01:30.985Z,18.40
2019-02-14T23:03:59.417Z,18.67
2019-02-14T23:06:28.157Z,18.87
2019-02-14T23:08:56.578Z,17.62
2019-02-14T23:11:25.030Z,16.93
2019-02-14T23:13:53.681Z,17.73
2019-02-14T23:16:22.360Z,17.85
2019-02-14T23:18:50.772Z,17.00
2019-02-14T23:21:19.188Z,16.50
2019-02-14T23:23:47.593Z,16.62
2019-02-14T23:26:15.992Z,17.87
2019-02-14T23:28:44.401Z,17.90
2019-02-14T23:31:12.835Z,17.52
2019-02-14T23:33:41.259Z,18.17
2019-02-14T23:36:09.673Z,17.98
2019-02-14T23:38:38.084Z,17.85
2019-02-14T23:41:06.481Z,17.90
2019-02-14T23:43:35.152Z,17.80
2019-02-14T23:46:03.560Z,17.52
2019-02-14T23:48:31.975Z,17.10
2019-02-14T23:51:00.380Z,17.37
2019-02-14T23:53:28.774Z,17.00
2019-02-14T23:55:57.199Z,17.35
2019-02-14T23:58:25.596Z,17.25
